Terminal Aerodrome Forecast
Issued by NWS Cleveland, OH

Home | Current Version | Previous Version | Graphics & Text | Print | Product List | Glossary On
Versions: 1 2 3 4 5 6 7 8 9 10 11 12 13 14 15 16 17 18 19 20 21 22 23 24 25 26
436
FTUS41 KCLE 230743 AAB
TAFCLE
TAF AMD
KCLE 230743Z 2308/2412 21012KT P6SM BKN025 OVC080
     FM230930 20012KT P6SM VCSH BKN018 OVC035
     FM231200 20012KT 6SM -SHRA VCTS BKN015CB OVC025
      TEMPO 2312/2315 4SM -SHRA OVC008
     FM231500 22012KT 5SM -SHRA VCTS OVC015CB
      TEMPO 2315/2319 24012G20KT 1SM TSRA OVC005CB
     FM232000 24010G20KT 5SM -SHRA OVC018
     FM232300 27005KT P6SM BKN025 OVC035=

USA.gov is the U.S. government's official web portal to all federal, state and local government web resources and services.